Terminal Aerodrome Forecast
Issued by NWS

Home | Current Version | Previous Version | Text Only | Print | Product List | Glossary On
Versions: 1 2 3 4 5 6 7 8 9 10 11 12 13 14
676
FTUS43 KMPX 251124
TAFRWF
TAF
KRWF 251124Z 2512/2612 31010KT P6SM SKC
     FM251800 26011KT P6SM FEW040 BKN090
     FM260100 21010KT P6SM OVC090=

USA.gov is the U.S. government's official web portal to all federal, state and local government web resources and services.